sensor_id;sensor_type;location;lat;lon;timestamp;pressure;altitude;pressure_sealevel;temperature;humidity
22647;BME280;11490;42.726;23.268;2023-05-19T00:02:09;95419.13;;;12.56;100.00
22647;BME280;11490;42.726;23.268;2023-05-19T00:04:35;95435.91;;;12.68;100.00
22647;BME280;11490;42.726;23.268;2023-05-19T00:07:02;95432.50;;;12.56;100.00
22647;BME280;11490;42.726;23.268;2023-05-19T00:09:27;95424.56;;;12.61;100.00
22647;BME280;11490;42.726;23.268;2023-05-19T00:11:53;95425.50;;;12.55;100.00
22647;BME280;11490;42.726;23.268;2023-05-19T00:14:20;95437.03;;;12.72;100.00
22647;BME280;11490;42.726;23.268;2023-05-19T00:16:46;95454.13;;;12.71;100.00
22647;BME280;11490;42.726;23.268;2023-05-19T00:19:12;95432.66;;;12.50;100.00
22647;BME280;11490;42.726;23.268;2023-05-19T00:21:38;95427.66;;;12.53;100.00
22647;BME280;11490;42.726;23.268;2023-05-19T00:24:06;95435.69;;;12.53;100.00
22647;BME280;11490;42.726;23.268;2023-05-19T00:26:31;95406.09;;;12.43;100.00
22647;BME280;11490;42.726;23.268;2023-05-19T00:28:57;95392.63;;;12.38;100.00
22647;BME280;11490;42.726;23.268;2023-05-19T00:31:22;95415.97;;;12.59;100.00
22647;BME280;11490;42.726;23.268;2023-05-19T00:33:48;95409.31;;;12.62;100.00
22647;BME280;11490;42.726;23.268;2023-05-19T00:36:13;95434.91;;;12.75;100.00
22647;BME280;11490;42.726;23.268;2023-05-19T00:38:39;95431.44;;;12.57;100.00
22647;BME280;11490;42.726;23.268;2023-05-19T00:41:05;95442.38;;;12.72;100.00
22647;BME280;11490;42.726;23.268;2023-05-19T00:43:31;95421.78;;;12.56;100.00
22647;BME280;11490;42.726;23.268;2023-05-19T00:45:58;95403.16;;;12.61;100.00
22647;BME280;11490;42.726;23.268;2023-05-19T00:48:24;95409.41;;;12.50;100.00
22647;BME280;11490;42.726;23.268;2023-05-19T00:50:52;95409.16;;;12.52;100.00
22647;BME280;11490;42.726;23.268;2023-05-19T00:53:18;95396.03;;;12.50;100.00
22647;BME280;11490;42.726;23.268;2023-05-19T00:55:45;95397.72;;;12.40;100.00
22647;BME280;11490;42.726;23.268;2023-05-19T00:58:11;95404.94;;;12.39;100.00
22647;BME280;11490;42.726;23.268;2023-05-19T01:00:38;95408.69;;;12.38;100.00
22647;BME280;11490;42.726;23.268;2023-05-19T01:03:04;95425.94;;;12.47;100.00
22647;BME280;11490;42.726;23.268;2023-05-19T01:05:38;95426.34;;;12.39;100.00
22647;BME280;11490;42.726;23.268;2023-05-19T01:08:06;95398.94;;;12.32;100.00
22647;BME280;11490;42.726;23.268;2023-05-19T01:10:31;95416.31;;;12.29;100.00
22647;BME280;11490;42.726;23.268;2023-05-19T01:12:57;95411.19;;;12.28;100.00
22647;BME280;11490;42.726;23.268;2023-05-19T01:15:24;95416.78;;;12.26;100.00
22647;BME280;11490;42.726;23.268;2023-05-19T01:20:46;95412.38;;;12.04;100.00
22647;BME280;11490;42.726;23.268;2023-05-19T01:23:47;95413.84;;;12.11;100.00
22647;BME280;11490;42.726;23.268;2023-05-19T01:29:15;95428.44;;;12.04;100.00
22647;BME280;11490;42.726;23.268;2023-05-19T01:31:49;95413.16;;;11.87;100.00
22647;BME280;11490;42.726;23.268;2023-05-19T01:34:17;95412.59;;;11.85;100.00
22647;BME280;11490;42.726;23.268;2023-05-19T01:36:46;95407.50;;;11.84;100.00
22647;BME280;11490;42.726;23.268;2023-05-19T01:39:17;95406.47;;;11.73;100.00
22647;BME280;11490;42.726;23.268;2023-05-19T01:41:44;95407.00;;;11.87;100.00
22647;BME280;11490;42.726;23.268;2023-05-19T01:44:10;95417.06;;;11.97;100.00
22647;BME280;11490;42.726;23.268;2023-05-19T01:46:37;95431.09;;;12.04;100.00
22647;BME280;11490;42.726;23.268;2023-05-19T01:49:03;95402.28;;;11.77;100.00
22647;BME280;11490;42.726;23.268;2023-05-19T01:51:29;95401.94;;;11.74;100.00
22647;BME280;11490;42.726;23.268;2023-05-19T01:53:55;95426.75;;;11.86;100.00
22647;BME280;11490;42.726;23.268;2023-05-19T01:57:14;95429.28;;;11.64;100.00
22647;BME280;11490;42.726;23.268;2023-05-19T01:59:29;95397.50;;;11.51;100.00
22647;BME280;11490;42.726;23.268;2023-05-19T02:02:07;95430.44;;;11.68;100.00
22647;BME280;11490;42.726;23.268;2023-05-19T02:04:42;95447.72;;;11.77;100.00
22647;BME280;11490;42.726;23.268;2023-05-19T02:10:22;95415.84;;;11.59;100.00
22647;BME280;11490;42.726;23.268;2023-05-19T02:12:52;95434.00;;;11.74;100.00
22647;BME280;11490;42.726;23.268;2023-05-19T02:15:29;95426.59;;;11.64;100.00
22647;BME280;11490;42.726;23.268;2023-05-19T02:17:59;95410.16;;;11.55;100.00
22647;BME280;11490;42.726;23.268;2023-05-19T02:20:34;95449.78;;;11.87;100.00
22647;BME280;11490;42.726;23.268;2023-05-19T02:23:02;95435.44;;;11.76;100.00
22647;BME280;11490;42.726;23.268;2023-05-19T02:25:31;95432.13;;;11.86;100.00
22647;BME280;11490;42.726;23.268;2023-05-19T02:28:00;95426.84;;;11.74;100.00
22647;BME280;11490;42.726;23.268;2023-05-19T02:30:25;95431.47;;;11.67;100.00
22647;BME280;11490;42.726;23.268;2023-05-19T02:32:51;95416.09;;;11.46;100.00
22647;BME280;11490;42.726;23.268;2023-05-19T02:35:20;95415.88;;;11.47;100.00
22647;BME280;11490;42.726;23.268;2023-05-19T02:37:46;95418.28;;;11.61;100.00
22647;BME280;11490;42.726;23.268;2023-05-19T02:40:12;95416.41;;;11.61;100.00
22647;BME280;11490;42.726;23.268;2023-05-19T02:42:37;95405.81;;;11.66;100.00
22647;BME280;11490;42.726;23.268;2023-05-19T02:45:06;95400.75;;;11.53;100.00
22647;BME280;11490;42.726;23.268;2023-05-19T02:47:39;95401.00;;;11.51;100.00
22647;BME280;11490;42.726;23.268;2023-05-19T02:50:08;95435.66;;;11.75;100.00
22647;BME280;11490;42.726;23.268;2023-05-19T02:52:34;95435.13;;;11.61;100.00
22647;BME280;11490;42.726;23.268;2023-05-19T02:55:02;95409.97;;;11.45;100.00
22647;BME280;11490;42.726;23.268;2023-05-19T02:57:28;95446.66;;;11.78;100.00
22647;BME280;11490;42.726;23.268;2023-05-19T02:59:55;95426.78;;;11.46;100.00
22647;BME280;11490;42.726;23.268;2023-05-19T03:02:21;95421.25;;;11.64;100.00
22647;BME280;11490;42.726;23.268;2023-05-19T03:04:49;95383.88;;;11.36;100.00
22647;BME280;11490;42.726;23.268;2023-05-19T03:07:20;95406.38;;;11.40;100.00
22647;BME280;11490;42.726;23.268;2023-05-19T03:09:56;95470.25;;;11.81;100.00
22647;BME280;11490;42.726;23.268;2023-05-19T03:12:24;95445.22;;;11.59;100.00
22647;BME280;11490;42.726;23.268;2023-05-19T03:14:52;95472.84;;;11.76;100.00
22647;BME280;11490;42.726;23.268;2023-05-19T03:17:20;95403.63;;;11.23;100.00
22647;BME280;11490;42.726;23.268;2023-05-19T03:20:01;95456.00;;;11.64;100.00
22647;BME280;11490;42.726;23.268;2023-05-19T03:22:32;95408.41;;;11.21;100.00
22647;BME280;11490;42.726;23.268;2023-05-19T03:25:02;95437.66;;;11.56;100.00
22647;BME280;11490;42.726;23.268;2023-05-19T03:27:36;95438.16;;;11.53;100.00
22647;BME280;11490;42.726;23.268;2023-05-19T03:30:02;95433.19;;;11.45;100.00
22647;BME280;11490;42.726;23.268;2023-05-19T03:32:55;95439.59;;;11.44;100.00
22647;BME280;11490;42.726;23.268;2023-05-19T03:35:26;95454.13;;;11.76;100.00
22647;BME280;11490;42.726;23.268;2023-05-19T03:37:57;95400.75;;;11.53;100.00
22647;BME280;11490;42.726;23.268;2023-05-19T03:40:22;95460.53;;;11.75;100.00
22647;BME280;11490;42.726;23.268;2023-05-19T03:42:54;95393.25;;;11.38;100.00
22647;BME280;11490;42.726;23.268;2023-05-19T03:45:22;95472.84;;;11.76;100.00
22647;BME280;11490;42.726;23.268;2023-05-19T03:47:47;95405.09;;;11.42;100.00
22647;BME280;11490;42.726;23.268;2023-05-19T03:50:13;95454.13;;;11.76;100.00
22647;BME280;11490;42.726;23.268;2023-05-19T03:52:38;95462.66;;;11.90;100.00
22647;BME280;11490;42.726;23.268;2023-05-19T03:55:07;95435.38;;;11.48;100.00
22647;BME280;11490;42.726;23.268;2023-05-19T03:57:32;95442.94;;;11.51;100.00
22647;BME280;11490;42.726;23.268;2023-05-19T04:00:03;95427.13;;;11.49;100.00
22647;BME280;11490;42.726;23.268;2023-05-19T04:02:29;95467.19;;;11.89;100.00
22647;BME280;11490;42.726;23.268;2023-05-19T04:04:55;95449.94;;;11.80;100.00
22647;BME280;11490;42.726;23.268;2023-05-19T04:07:21;95452.69;;;11.85;100.00
22647;BME280;11490;42.726;23.268;2023-05-19T04:09:47;95475.59;;;12.10;100.00
22647;BME280;11490;42.726;23.268;2023-05-19T04:12:14;95460.22;;;11.88;100.00
22647;BME280;11490;42.726;23.268;2023-05-19T04:14:39;95454.34;;;12.03;100.00
22647;BME280;11490;42.726;23.268;2023-05-19T04:17:05;95470.41;;;12.20;100.00
22647;BME280;11490;42.726;23.268;2023-05-19T04:19:30;95451.13;;;12.18;100.00
22647;BME280;11490;42.726;23.268;2023-05-19T04:21:59;95445.13;;;12.11;100.00
22647;BME280;11490;42.726;23.268;2023-05-19T04:24:24;95480.25;;;12.64;100.00
22647;BME280;11490;42.726;23.268;2023-05-19T04:26:55;95490.97;;;12.81;100.00
22647;BME280;11490;42.726;23.268;2023-05-19T04:29:24;95468.56;;;12.70;100.00
22647;BME280;11490;42.726;23.268;2023-05-19T04:31:49;95463.63;;;12.62;100.00
22647;BME280;11490;42.726;23.268;2023-05-19T04:34:14;95457.84;;;12.70;100.00
22647;BME280;11490;42.726;23.268;2023-05-19T04:36:43;95488.19;;;12.93;100.00
22647;BME280;11490;42.726;23.268;2023-05-19T04:39:12;95455.34;;;12.81;100.00
22647;BME280;11490;42.726;23.268;2023-05-19T04:41:41;95477.13;;;13.06;100.00
22647;BME280;11490;42.726;23.268;2023-05-19T04:44:09;95484.78;;;13.14;100.00
22647;BME280;11490;42.726;23.268;2023-05-19T04:46:35;95472.84;;;13.22;100.00
22647;BME280;11490;42.726;23.268;2023-05-19T04:49:09;95475.91;;;13.30;100.00
22647;BME280;11490;42.726;23.268;2023-05-19T04:51:37;95453.84;;;13.23;100.00
22647;BME280;11490;42.726;23.268;2023-05-19T04:56:52;95477.22;;;13.49;100.00
22647;BME280;11490;42.726;23.268;2023-05-19T04:59:18;95497.84;;;13.71;100.00
22647;BME280;11490;42.726;23.268;2023-05-19T05:01:43;95496.25;;;13.70;100.00
22647;BME280;11490;42.726;23.268;2023-05-19T05:04:08;95496.72;;;13.45;100.00
22647;BME280;11490;42.726;23.268;2023-05-19T05:06:34;95488.19;;;13.70;100.00
22647;BME280;11490;42.726;23.268;2023-05-19T05:09:02;95501.38;;;13.98;100.00
22647;BME280;11490;42.726;23.268;2023-05-19T05:11:28;95505.91;;;14.19;100.00
22647;BME280;11490;42.726;23.268;2023-05-19T05:13:54;95504.28;;;14.18;100.00
22647;BME280;11490;42.726;23.268;2023-05-19T05:16:22;95508.00;;;14.17;100.00
22647;BME280;11490;42.726;23.268;2023-05-19T05:18:49;95511.38;;;14.30;100.00
22647;BME280;11490;42.726;23.268;2023-05-19T05:21:14;95507.44;;;14.37;100.00
22647;BME280;11490;42.726;23.268;2023-05-19T05:23:40;95505.00;;;14.36;100.00
22647;BME280;11490;42.726;23.268;2023-05-19T05:26:09;95510.34;;;14.36;100.00
22647;BME280;11490;42.726;23.268;2023-05-19T05:28:40;95491.53;;;14.31;100.00
22647;BME280;11490;42.726;23.268;2023-05-19T05:31:05;95492.94;;;14.11;100.00
22647;BME280;11490;42.726;23.268;2023-05-19T05:33:31;95506.63;;;14.37;100.00
22647;BME280;11490;42.726;23.268;2023-05-19T05:35:56;95496.75;;;14.15;100.00
22647;BME280;11490;42.726;23.268;2023-05-19T05:38:21;95508.47;;;14.36;100.00
22647;BME280;11490;42.726;23.268;2023-05-19T05:40:51;95489.53;;;14.43;100.00
22647;BME280;11490;42.726;23.268;2023-05-19T05:43:17;95501.88;;;14.44;100.00
22647;BME280;11490;42.726;23.268;2023-05-19T05:45:42;95492.88;;;14.55;100.00
22647;BME280;11490;42.726;23.268;2023-05-19T05:48:08;95486.41;;;14.56;100.00
22647;BME280;11490;42.726;23.268;2023-05-19T05:50:33;95524.66;;;14.68;100.00
22647;BME280;11490;42.726;23.268;2023-05-19T05:53:00;95508.00;;;14.71;100.00
22647;BME280;11490;42.726;23.268;2023-05-19T05:55:26;95513.81;;;14.90;100.00
22647;BME280;11490;42.726;23.268;2023-05-19T05:57:51;95484.53;;;14.88;100.00
22647;BME280;11490;42.726;23.268;2023-05-19T06:00:17;95513.69;;;15.07;100.00
22647;BME280;11490;42.726;23.268;2023-05-19T06:02:49;95507.03;;;15.19;100.00
22647;BME280;11490;42.726;23.268;2023-05-19T06:05:15;95503.22;;;15.10;100.00
22647;BME280;11490;42.726;23.268;2023-05-19T06:07:41;95529.44;;;15.35;100.00
22647;BME280;11490;42.726;23.268;2023-05-19T06:10:07;95491.41;;;15.11;100.00
22647;BME280;11490;42.726;23.268;2023-05-19T06:12:34;95542.97;;;15.50;100.00
22647;BME280;11490;42.726;23.268;2023-05-19T06:15:01;95534.50;;;15.68;100.00
22647;BME280;11490;42.726;23.268;2023-05-19T06:17:27;95534.06;;;15.87;100.00
22647;BME280;11490;42.726;23.268;2023-05-19T06:19:53;95528.63;;;15.76;100.00
22647;BME280;11490;42.726;23.268;2023-05-19T06:22:18;95520.06;;;15.90;100.00
22647;BME280;11490;42.726;23.268;2023-05-19T06:24:43;95534.13;;;16.02;100.00
22647;BME280;11490;42.726;23.268;2023-05-19T06:27:09;95513.69;;;16.06;100.00
22647;BME280;11490;42.726;23.268;2023-05-19T06:29:34;95535.81;;;16.28;97.57
22647;BME280;11490;42.726;23.268;2023-05-19T06:32:00;95513.16;;;16.14;100.00
22647;BME280;11490;42.726;23.268;2023-05-19T06:34:25;95509.97;;;16.17;98.57
22647;BME280;11490;42.726;23.268;2023-05-19T06:36:51;95517.25;;;16.42;99.79
22647;BME280;11490;42.726;23.268;2023-05-19T06:39:16;95531.31;;;16.59;94.98
22647;BME280;11490;42.726;23.268;2023-05-19T06:41:42;95515.41;;;16.47;94.13
22647;BME280;11490;42.726;23.268;2023-05-19T06:44:07;95514.31;;;16.43;96.20
22647;BME280;11490;42.726;23.268;2023-05-19T06:46:35;95523.50;;;16.47;95.96
22647;BME280;11490;42.726;23.268;2023-05-19T06:49:01;95532.44;;;16.68;96.86
22647;BME280;11490;42.726;23.268;2023-05-19T06:51:26;95507.06;;;16.49;96.36
22647;BME280;11490;42.726;23.268;2023-05-19T06:53:51;95532.19;;;16.95;97.58
22647;BME280;11490;42.726;23.268;2023-05-19T06:56:17;95520.31;;;16.86;94.23
22647;BME280;11490;42.726;23.268;2023-05-19T06:58:43;95533.78;;;17.06;93.12
22647;BME280;11490;42.726;23.268;2023-05-19T07:01:09;95519.78;;;16.99;96.24
22647;BME280;11490;42.726;23.268;2023-05-19T07:03:34;95544.03;;;17.04;90.34
22647;BME280;11490;42.726;23.268;2023-05-19T07:06:00;95522.94;;;16.45;88.34
22647;BME280;11490;42.726;23.268;2023-05-19T07:08:25;95544.28;;;17.13;91.32
22647;BME280;11490;42.726;23.268;2023-05-19T07:10:52;95536.47;;;17.31;94.11
22647;BME280;11490;42.726;23.268;2023-05-19T07:13:17;95548.84;;;17.63;92.53
22647;BME280;11490;42.726;23.268;2023-05-19T07:15:44;95537.00;;;17.28;89.29
22647;BME280;11490;42.726;23.268;2023-05-19T07:18:10;95539.16;;;17.47;87.12
22647;BME280;11490;42.726;23.268;2023-05-19T07:20:35;95532.66;;;17.63;94.19
22647;BME280;11490;42.726;23.268;2023-05-19T07:23:00;95549.34;;;17.80;93.02
22647;BME280;11490;42.726;23.268;2023-05-19T07:25:27;95558.47;;;17.89;91.19
22647;BME280;11490;42.726;23.268;2023-05-19T07:27:55;95557.34;;;18.05;92.45
22647;BME280;11490;42.726;23.268;2023-05-19T07:30:20;95567.00;;;18.22;84.45
22647;BME280;11490;42.726;23.268;2023-05-19T07:32:45;95548.59;;;18.34;88.45
22647;BME280;11490;42.726;23.268;2023-05-19T07:35:11;95549.09;;;18.41;90.51
22647;BME280;11490;42.726;23.268;2023-05-19T07:37:36;95554.91;;;18.68;85.02
22647;BME280;11490;42.726;23.268;2023-05-19T07:40:02;95546.69;;;18.89;89.81
22647;BME280;11490;42.726;23.268;2023-05-19T07:42:28;95538.03;;;18.87;87.68
22647;BME280;11490;42.726;23.268;2023-05-19T07:44:53;95556.78;;;19.07;84.36
22647;BME280;11490;42.726;23.268;2023-05-19T07:47:19;95562.25;;;19.02;85.71
22647;BME280;11490;42.726;23.268;2023-05-19T07:49:44;95544.38;;;19.06;84.37
22647;BME280;11490;42.726;23.268;2023-05-19T07:52:10;95559.47;;;19.12;84.04
22647;BME280;11490;42.726;23.268;2023-05-19T07:54:35;95560.84;;;19.09;85.05
22647;BME280;11490;42.726;23.268;2023-05-19T07:57:00;95542.59;;;19.25;85.48
22647;BME280;11490;42.726;23.268;2023-05-19T07:59:26;95561.34;;;19.45;81.96
22647;BME280;11490;42.726;23.268;2023-05-19T08:01:52;95557.44;;;19.62;83.48
22647;BME280;11490;42.726;23.268;2023-05-19T08:04:17;95538.44;;;19.67;87.03
22647;BME280;11490;42.726;23.268;2023-05-19T08:06:43;95543.69;;;19.82;80.50
22647;BME280;11490;42.726;23.268;2023-05-19T08:09:09;95551.50;;;19.83;82.20
22647;BME280;11490;42.726;23.268;2023-05-19T08:11:34;95555.56;;;19.86;78.35
22647;BME280;11490;42.726;23.268;2023-05-19T08:14:00;95547.25;;;20.01;86.09
22647;BME280;11490;42.726;23.268;2023-05-19T08:16:26;95539.84;;;20.12;86.58
22647;BME280;11490;42.726;23.268;2023-05-19T08:18:51;95549.25;;;20.14;78.46
22647;BME280;11490;42.726;23.268;2023-05-19T08:21:17;95561.59;;;20.25;78.25
22647;BME280;11490;42.726;23.268;2023-05-19T08:23:42;95559.63;;;20.55;78.82
22647;BME280;11490;42.726;23.268;2023-05-19T08:26:08;95556.53;;;20.43;75.98
22647;BME280;11490;42.726;23.268;2023-05-19T08:28:33;95541.97;;;20.57;78.50
22647;BME280;11490;42.726;23.268;2023-05-19T08:30:58;95550.91;;;20.95;81.79
22647;BME280;11490;42.726;23.268;2023-05-19T08:33:24;95551.28;;;20.70;74.20
22647;BME280;11490;42.726;23.268;2023-05-19T08:35:49;95547.34;;;20.81;72.20
22647;BME280;11490;42.726;23.268;2023-05-19T08:38:15;95548.78;;;20.92;78.21
22647;BME280;11490;42.726;23.268;2023-05-19T08:40:41;95544.19;;;20.74;73.52
22647;BME280;11490;42.726;23.268;2023-05-19T08:43:07;95550.97;;;20.29;72.36
22647;BME280;11490;42.726;23.268;2023-05-19T08:45:33;95551.88;;;20.67;69.71
22647;BME280;11490;42.726;23.268;2023-05-19T08:47:58;95555.25;;;20.96;71.21
22647;BME280;11490;42.726;23.268;2023-05-19T08:50:29;95531.22;;;20.71;69.81
22647;BME280;11490;42.726;23.268;2023-05-19T08:53:00;95541.25;;;20.70;79.05
22647;BME280;11490;42.726;23.268;2023-05-19T08:58:13;95547.41;;;21.46;73.51
22647;BME280;11490;42.726;23.268;2023-05-19T09:00:41;95523.31;;;21.58;71.58
22647;BME280;11490;42.726;23.268;2023-05-19T09:03:07;95518.63;;;21.45;73.72
22647;BME280;11490;42.726;23.268;2023-05-19T09:05:33;95528.88;;;21.80;74.73
22647;BME280;11490;42.726;23.268;2023-05-19T09:07:58;95528.75;;;21.85;70.80
22647;BME280;11490;42.726;23.268;2023-05-19T09:10:26;95532.22;;;22.05;73.14
22647;BME280;11490;42.726;23.268;2023-05-19T09:12:52;95521.53;;;21.95;68.59
22647;BME280;11490;42.726;23.268;2023-05-19T09:15:17;95523.78;;;22.20;73.94
22647;BME280;11490;42.726;23.268;2023-05-19T09:17:44;95521.75;;;22.12;68.29
22647;BME280;11490;42.726;23.268;2023-05-19T09:20:13;95531.13;;;22.06;67.41
22647;BME280;11490;42.726;23.268;2023-05-19T09:22:44;95514.31;;;22.17;69.18
22647;BME280;11490;42.726;23.268;2023-05-19T09:25:24;95491.53;;;21.72;68.32
22647;BME280;11490;42.726;23.268;2023-05-19T09:27:49;95513.28;;;22.27;71.19
22647;BME280;11490;42.726;23.268;2023-05-19T09:30:16;95493.38;;;22.04;66.85
22647;BME280;11490;42.726;23.268;2023-05-19T09:32:42;95483.72;;;22.12;67.12
22647;BME280;11490;42.726;23.268;2023-05-19T09:35:08;95509.09;;;22.21;73.64
22647;BME280;11490;42.726;23.268;2023-05-19T09:37:34;95511.25;;;21.92;65.71
22647;BME280;11490;42.726;23.268;2023-05-19T09:40:03;95492.25;;;21.92;66.29
22647;BME280;11490;42.726;23.268;2023-05-19T09:42:30;95481.69;;;21.76;69.27
22647;BME280;11490;42.726;23.268;2023-05-19T09:45:01;95510.88;;;22.25;64.99
22647;BME280;11490;42.726;23.268;2023-05-19T09:47:35;95477.47;;;21.70;64.53
22647;BME280;11490;42.726;23.268;2023-05-19T09:50:05;95486.41;;;21.84;70.11
22647;BME280;11490;42.726;23.268;2023-05-19T09:52:34;95459.84;;;21.54;69.17
22647;BME280;11490;42.726;23.268;2023-05-19T09:55:01;95487.84;;;21.82;61.97
22647;BME280;11490;42.726;23.268;2023-05-19T09:57:32;95472.25;;;21.74;67.89
22647;BME280;11490;42.726;23.268;2023-05-19T10:00:01;95475.47;;;22.17;73.43
22647;BME280;11490;42.726;23.268;2023-05-19T10:02:27;95476.06;;;22.27;69.46
22647;BME280;11490;42.726;23.268;2023-05-19T10:04:53;95467.19;;;21.95;64.43
22647;BME280;11490;42.726;23.268;2023-05-19T10:07:19;95495.69;;;21.24;67.73
22647;BME280;11490;42.726;23.268;2023-05-19T10:09:47;95482.13;;;21.24;67.91
22647;BME280;11490;42.726;23.268;2023-05-19T10:12:14;95461.75;;;20.75;66.01
22647;BME280;11490;42.726;23.268;2023-05-19T10:14:39;95479.22;;;21.01;67.03
22647;BME280;11490;42.726;23.268;2023-05-19T10:17:04;95483.53;;;21.02;64.65
22647;BME280;11490;42.726;23.268;2023-05-19T10:19:31;95473.81;;;21.34;61.63
22647;BME280;11490;42.726;23.268;2023-05-19T10:21:57;95465.06;;;21.92;69.68
22647;BME280;11490;42.726;23.268;2023-05-19T10:24:22;95466.72;;;22.20;68.88
22647;BME280;11490;42.726;23.268;2023-05-19T10:26:54;95471.44;;;22.28;63.90
22647;BME280;11490;42.726;23.268;2023-05-19T10:29:30;95456.56;;;22.12;62.27
22647;BME280;11490;42.726;23.268;2023-05-19T10:32:00;95471.25;;;22.11;61.59
22647;BME280;11490;42.726;23.268;2023-05-19T10:34:34;95472.53;;;22.27;66.54
22647;BME280;11490;42.726;23.268;2023-05-19T10:37:25;95436.97;;;22.37;67.73
22647;BME280;11490;42.726;23.268;2023-05-19T10:39:53;95453.84;;;22.12;63.23
22647;BME280;11490;42.726;23.268;2023-05-19T10:45:29;95496.31;;;20.83;60.83
22647;BME280;11490;42.726;23.268;2023-05-19T10:47:56;95474.22;;;21.08;65.92
22647;BME280;11490;42.726;23.268;2023-05-19T10:50:21;95447.34;;;20.93;64.57
22647;BME280;11490;42.726;23.268;2023-05-19T10:52:56;95473.91;;;21.10;68.25
22647;BME280;11490;42.726;23.268;2023-05-19T10:55:46;95471.78;;;21.39;67.90
22647;BME280;11490;42.726;23.268;2023-05-19T10:58:14;95444.38;;;21.41;62.43
22647;BME280;11490;42.726;23.268;2023-05-19T11:00:40;95466.41;;;21.80;60.63
22647;BME280;11490;42.726;23.268;2023-05-19T11:03:12;95460.00;;;22.04;60.30
22647;BME280;11490;42.726;23.268;2023-05-19T11:05:38;95456.16;;;22.05;58.58
22647;BME280;11490;42.726;23.268;2023-05-19T11:08:05;95467.59;;;22.29;63.90
22647;BME280;11490;42.726;23.268;2023-05-19T11:10:32;95447.09;;;21.96;60.89
22647;BME280;11490;42.726;23.268;2023-05-19T11:12:58;95443.97;;;22.16;62.31
22647;BME280;11490;42.726;23.268;2023-05-19T11:15:27;95454.66;;;22.12;62.43
22647;BME280;11490;42.726;23.268;2023-05-19T11:17:53;95445.50;;;21.81;60.25
22647;BME280;11490;42.726;23.268;2023-05-19T11:23:16;95445.16;;;21.69;62.32
22647;BME280;11490;42.726;23.268;2023-05-19T11:25:44;95462.41;;;22.05;62.97
22647;BME280;11490;42.726;23.268;2023-05-19T11:28:18;95452.41;;;22.28;59.58
22647;BME280;11490;42.726;23.268;2023-05-19T11:30:48;95457.16;;;22.09;56.19
22647;BME280;11490;42.726;23.268;2023-05-19T11:33:14;95450.22;;;22.03;56.36
22647;BME280;11490;42.726;23.268;2023-05-19T11:35:44;95429.38;;;22.12;59.56
22647;BME280;11490;42.726;23.268;2023-05-19T11:38:10;95445.63;;;22.39;60.71
22647;BME280;11490;42.726;23.268;2023-05-19T11:40:35;95456.88;;;22.46;55.90
22647;BME280;11490;42.726;23.268;2023-05-19T11:43:01;95454.94;;;22.11;54.81
22647;BME280;11490;42.726;23.268;2023-05-19T11:45:30;95432.50;;;21.64;55.60
22647;BME280;11490;42.726;23.268;2023-05-19T11:47:59;95439.53;;;21.38;59.14
22647;BME280;11490;42.726;23.268;2023-05-19T11:50:25;95430.09;;;21.35;62.60
22647;BME280;11490;42.726;23.268;2023-05-19T11:52:51;95435.59;;;21.30;60.68
22647;BME280;11490;42.726;23.268;2023-05-19T11:55:21;95440.22;;;21.30;65.41
22647;BME280;11490;42.726;23.268;2023-05-19T11:58:04;95439.22;;;21.26;60.43
22647;BME280;11490;42.726;23.268;2023-05-19T12:00:35;95461.75;;;21.40;60.53
22647;BME280;11490;42.726;23.268;2023-05-19T12:03:04;95466.13;;;21.22;61.47
22647;BME280;11490;42.726;23.268;2023-05-19T12:05:29;95464.47;;;21.07;61.50
22647;BME280;11490;42.726;23.268;2023-05-19T12:07:56;95459.00;;;20.94;64.19
22647;BME280;11490;42.726;23.268;2023-05-19T12:10:29;95461.31;;;20.68;60.95
22647;BME280;11490;42.726;23.268;2023-05-19T12:12:55;95443.88;;;20.36;63.75
22647;BME280;11490;42.726;23.268;2023-05-19T12:15:22;95470.00;;;20.09;67.38
22647;BME280;11490;42.726;23.268;2023-05-19T12:18:00;95485.91;;;19.68;67.92
22647;BME280;11490;42.726;23.268;2023-05-19T12:20:26;95477.84;;;19.10;72.00
22647;BME280;11490;42.726;23.268;2023-05-19T12:22:56;95497.06;;;18.69;80.31
22647;BME280;11490;42.726;23.268;2023-05-19T12:25:22;95503.88;;;18.13;90.95
22647;BME280;11490;42.726;23.268;2023-05-19T12:27:47;95472.81;;;17.36;96.74
22647;BME280;11490;42.726;23.268;2023-05-19T12:30:15;95459.97;;;16.82;99.42
22647;BME280;11490;42.726;23.268;2023-05-19T12:32:41;95465.59;;;16.40;98.43
22647;BME280;11490;42.726;23.268;2023-05-19T12:35:07;95481.47;;;16.46;98.36
22647;BME280;11490;42.726;23.268;2023-05-19T12:37:33;95493.84;;;16.58;96.01
22647;BME280;11490;42.726;23.268;2023-05-19T12:39:59;95470.69;;;16.36;99.19
22647;BME280;11490;42.726;23.268;2023-05-19T12:42:28;95477.66;;;16.17;94.05
22647;BME280;11490;42.726;23.268;2023-05-19T12:44:59;95471.47;;;16.16;95.64
22647;BME280;11490;42.726;23.268;2023-05-19T12:47:47;95460.72;;;16.22;93.15
22647;BME280;11490;42.726;23.268;2023-05-19T12:50:12;95460.50;;;16.48;92.29
22647;BME280;11490;42.726;23.268;2023-05-19T12:52:47;95452.69;;;16.67;91.39
22647;BME280;11490;42.726;23.268;2023-05-19T12:55:15;95447.59;;;16.76;92.24
22647;BME280;11490;42.726;23.268;2023-05-19T12:57:48;95444.84;;;17.06;90.85
22647;BME280;11490;42.726;23.268;2023-05-19T13:00:17;95449.38;;;17.31;92.24
22647;BME280;11490;42.726;23.268;2023-05-19T13:03:01;95455.53;;;17.62;89.12
22647;BME280;11490;42.726;23.268;2023-05-19T13:05:35;95447.97;;;17.64;84.54
22647;BME280;11490;42.726;23.268;2023-05-19T13:10:35;95432.72;;;17.93;82.05
22647;BME280;11490;42.726;23.268;2023-05-19T13:13:01;95452.84;;;18.16;80.51